createdAt,value
2018-06-18T00:01:54.943Z,2.67
2018-06-18T00:04:24.252Z,3.10
2018-06-18T00:06:53.484Z,2.87
2018-06-18T00:09:23.422Z,2.87
2018-06-18T00:11:52.997Z,3.00
2018-06-18T00:14:22.228Z,3.47
2018-06-18T00:16:51.453Z,3.53
2018-06-18T00:19:20.352Z,3.40
2018-06-18T00:21:49.479Z,3.20
2018-06-18T00:24:18.685Z,3.90
2018-06-18T00:26:48.386Z,2.47
2018-06-18T00:29:17.616Z,3.33
2018-06-18T00:31:46.856Z,3.60
2018-06-18T00:34:16.132Z,3.07
2018-06-18T00:36:45.348Z,3.40
2018-06-18T00:39:14.544Z,3.70
2018-06-18T00:41:43.785Z,3.10
2018-06-18T00:44:13.039Z,3.50
2018-06-18T00:46:42.287Z,3.53
2018-06-18T00:49:11.780Z,3.77
2018-06-18T00:51:41.012Z,3.33
2018-06-18T00:54:10.256Z,3.47
2018-06-18T00:56:40.032Z,3.50
2018-06-18T00:59:09.252Z,3.80
2018-06-18T01:01:38.264Z,4.60
2018-06-18T01:04:07.380Z,4.10
2018-06-18T01:06:36.603Z,3.80
2018-06-18T01:09:10.048Z,3.60
2018-06-18T01:11:39.264Z,4.03
2018-06-18T01:14:08.502Z,3.60
2018-06-18T01:16:37.776Z,4.37
2018-06-18T01:19:06.988Z,4.30
2018-06-18T01:21:36.194Z,4.10
2018-06-18T01:24:12.652Z,4.47
2018-06-18T01:26:41.860Z,3.83
2018-06-18T01:29:11.090Z,4.43
2018-06-18T01:31:40.331Z,3.60
2018-06-18T01:34:16.460Z,4.00
2018-06-18T01:36:45.745Z,3.60
2018-06-18T01:39:14.980Z,4.00
2018-06-18T01:41:44.280Z,3.90
2018-06-18T01:44:14.208Z,4.37
2018-06-18T01:46:43.431Z,4.63
2018-06-18T01:49:12.671Z,3.80
2018-06-18T01:51:41.973Z,3.60
2018-06-18T01:54:11.228Z,3.53
2018-06-18T01:56:40.528Z,3.40
2018-06-18T01:59:09.803Z,3.60
2018-06-18T02:01:39.026Z,3.23
2018-06-18T02:04:08.253Z,3.83
2018-06-18T02:06:38.216Z,3.70
2018-06-18T02:09:09.707Z,3.47
2018-06-18T02:11:38.960Z,3.80
2018-06-18T02:14:08.678Z,3.70
2018-06-18T02:16:37.914Z,4.20
2018-06-18T02:19:07.614Z,3.77
2018-06-18T02:21:36.934Z,3.73
2018-06-18T02:24:06.284Z,3.50
2018-06-18T02:26:35.892Z,3.70
2018-06-18T02:29:10.517Z,3.93
2018-06-18T02:31:44.905Z,3.33
2018-06-18T02:36:26.878Z,4.60
2018-06-18T02:39:01.406Z,4.00
2018-06-18T02:41:30.876Z,3.90
2018-06-18T02:44:00.127Z,3.93
2018-06-18T02:46:29.666Z,3.40
2018-06-18T02:48:58.968Z,3.93
2018-06-18T02:51:28.196Z,5.10
2018-06-18T02:53:57.476Z,3.60
2018-06-18T02:56:34.712Z,3.10
2018-06-18T02:59:03.983Z,3.30
2018-06-18T03:01:33.229Z,3.23
2018-06-18T03:04:02.460Z,3.50
2018-06-18T03:06:32.201Z,2.90
2018-06-18T03:09:01.433Z,3.47
2018-06-18T03:11:30.691Z,3.17
2018-06-18T03:13:59.959Z,3.70
2018-06-18T03:16:29.212Z,2.83
2018-06-18T03:19:03.843Z,4.43
2018-06-18T03:21:38.212Z,4.00
2018-06-18T03:24:11.259Z,4.07
2018-06-18T03:26:45.608Z,3.50
2018-06-18T03:29:16.951Z,3.43
2018-06-18T03:31:46.662Z,3.80
2018-06-18T03:34:15.872Z,3.47
2018-06-18T03:36:45.842Z,5.00
2018-06-18T03:39:15.141Z,3.13
2018-06-18T03:41:46.664Z,2.67
2018-06-18T03:44:20.598Z,3.17
2018-06-18T03:46:49.904Z,3.70
2018-06-18T03:49:19.148Z,3.07
2018-06-18T03:51:48.416Z,3.30
2018-06-18T03:54:17.640Z,3.20
2018-06-18T03:56:49.740Z,3.20
2018-06-18T03:59:18.971Z,3.23
2018-06-18T04:04:00.249Z,3.40
2018-06-18T04:06:34.640Z,2.70
2018-06-18T04:09:11.349Z,3.30
2018-06-18T04:11:46.360Z,2.93
2018-06-18T04:14:16.424Z,4.70
2018-06-18T04:16:45.769Z,3.20
2018-06-18T04:19:15.022Z,3.20
2018-06-18T04:21:44.514Z,3.17
2018-06-18T04:24:13.716Z,2.70
2018-06-18T04:26:43.244Z,2.90
2018-06-18T04:29:12.493Z,3.40
2018-06-18T04:31:42.047Z,2.77
2018-06-18T04:34:34.502Z,3.00
2018-06-18T04:37:04.896Z,3.30
2018-06-18T04:39:34.144Z,2.87
2018-06-18T04:42:12.677Z,3.77
2018-06-18T04:44:47.283Z,4.03
2018-06-18T04:47:21.928Z,3.37
2018-06-18T04:49:56.264Z,2.97
2018-06-18T04:52:25.501Z,3.20
2018-06-18T04:54:55.643Z,3.00
2018-06-18T04:57:24.848Z,3.03
2018-06-18T05:00:07.889Z,3.40
2018-06-18T05:02:37.840Z,3.20
2018-06-18T05:05:08.331Z,3.03
2018-06-18T05:07:37.556Z,3.30
2018-06-18T05:10:17.207Z,2.87
2018-06-18T05:12:46.425Z,4.80
2018-06-18T05:15:16.390Z,3.90
2018-06-18T05:17:45.773Z,3.40
2018-06-18T05:20:16.462Z,3.60
2018-06-18T05:22:45.672Z,3.30
2018-06-18T05:25:14.903Z,2.50
2018-06-18T05:27:43.799Z,3.40
2018-06-18T05:30:15.597Z,3.20
2018-06-18T05:32:44.856Z,2.77
2018-06-18T05:35:14.153Z,2.60
2018-06-18T05:37:49.740Z,3.40
2018-06-18T05:40:18.984Z,3.10
2018-06-18T05:42:48.464Z,3.53
2018-06-18T05:45:18.071Z,3.30
2018-06-18T05:47:47.279Z,2.67
2018-06-18T05:50:16.532Z,2.80
2018-06-18T05:52:45.773Z,3.60
2018-06-18T05:55:14.992Z,2.50
2018-06-18T05:57:45.465Z,3.00
2018-06-18T06:00:15.604Z,2.97
2018-06-18T06:02:44.859Z,3.20
2018-06-18T06:05:14.111Z,3.00
2018-06-18T06:07:43.358Z,2.53
2018-06-18T06:10:12.574Z,2.10
2018-06-18T06:12:41.806Z,3.27
2018-06-18T06:15:11.049Z,3.00
2018-06-18T06:17:40.300Z,2.87
2018-06-18T06:20:09.919Z,2.53
2018-06-18T06:22:39.633Z,2.80
2018-06-18T06:25:08.884Z,2.33
2018-06-18T06:27:40.000Z,2.30
2018-06-18T06:30:09.272Z,2.30
2018-06-18T06:32:38.528Z,2.33
2018-06-18T06:35:17.464Z,2.37
2018-06-18T06:37:46.712Z,3.00
2018-06-18T06:40:15.987Z,2.07
2018-06-18T06:42:45.776Z,2.30
2018-06-18T06:45:15.184Z,2.40
2018-06-18T06:47:44.429Z,2.70
2018-06-18T06:50:13.705Z,2.50
2018-06-18T06:52:43.045Z,2.67
2018-06-18T06:55:13.688Z,2.30
2018-06-18T06:57:42.932Z,2.77
2018-06-18T07:00:12.168Z,2.37
2018-06-18T07:02:41.364Z,2.17
2018-06-18T07:05:10.952Z,2.20
2018-06-18T07:07:40.199Z,1.87
2018-06-18T07:10:09.624Z,2.67
2018-06-18T07:12:38.880Z,2.50
2018-06-18T07:15:08.109Z,2.30
2018-06-18T07:17:38.424Z,2.40
2018-06-18T07:20:07.832Z,2.77
2018-06-18T07:22:37.088Z,2.23
2018-06-18T07:25:06.310Z,2.30
2018-06-18T07:27:35.921Z,2.37
2018-06-18T07:30:05.945Z,2.40
2018-06-18T07:32:35.254Z,2.47
2018-06-18T07:35:05.708Z,2.60
2018-06-18T07:37:35.040Z,2.57
2018-06-18T07:40:04.312Z,2.70
2018-06-18T07:42:33.684Z,3.23
2018-06-18T07:45:03.116Z,2.40
2018-06-18T07:47:32.615Z,2.70
2018-06-18T07:50:02.373Z,2.83
2018-06-18T07:52:31.641Z,2.60
2018-06-18T07:55:00.944Z,2.50
2018-06-18T07:57:30.505Z,2.13
2018-06-18T07:59:59.892Z,2.20
2018-06-18T08:02:29.325Z,1.90
2018-06-18T08:04:58.805Z,2.60
2018-06-18T08:07:28.104Z,2.27
2018-06-18T08:09:59.714Z,2.70
2018-06-18T08:12:29.840Z,2.37
2018-06-18T08:15:02.273Z,2.10
2018-06-18T08:17:31.773Z,2.77
2018-06-18T08:20:01.550Z,2.10
2018-06-18T08:22:30.987Z,2.83
2018-06-18T08:25:00.232Z,1.90
2018-06-18T08:27:29.815Z,1.70
2018-06-18T08:29:59.161Z,1.77
2018-06-18T08:32:28.374Z,2.10
2018-06-18T08:34:57.641Z,2.40
2018-06-18T08:37:26.905Z,2.40
2018-06-18T08:39:56.166Z,2.00
2018-06-18T08:42:25.380Z,2.33
2018-06-18T08:44:54.837Z,1.90
2018-06-18T08:47:24.081Z,2.17
2018-06-18T08:49:59.387Z,2.40
2018-06-18T08:52:33.837Z,2.50
2018-06-18T08:57:10.972Z,2.50
2018-06-18T08:59:45.655Z,2.00
2018-06-18T09:02:14.989Z,1.93
2018-06-18T09:04:49.417Z,2.13
2018-06-18T09:07:22.979Z,2.00
2018-06-18T09:09:52.352Z,2.23
2018-06-18T09:12:21.593Z,2.20
2018-06-18T09:14:50.844Z,2.30
2018-06-18T09:17:20.092Z,2.60
2018-06-18T09:19:49.324Z,2.37
2018-06-18T09:22:19.089Z,2.00
2018-06-18T09:24:48.316Z,2.63
2018-06-18T09:27:17.548Z,1.60
2018-06-18T09:29:52.236Z,2.27
2018-06-18T09:32:21.693Z,3.10
2018-06-18T09:34:50.707Z,1.67
2018-06-18T09:37:19.980Z,2.40
2018-06-18T09:39:49.222Z,1.97
2018-06-18T09:42:18.460Z,1.80
2018-06-18T09:44:47.708Z,2.37
2018-06-18T09:47:16.972Z,2.30
2018-06-18T09:49:52.143Z,2.33
2018-06-18T09:52:26.503Z,2.13
2018-06-18T09:55:00.960Z,2.00
2018-06-18T09:57:35.489Z,2.60
2018-06-18T10:00:12.060Z,2.57
2018-06-18T10:02:41.325Z,2.80
2018-06-18T10:05:10.581Z,2.30
2018-06-18T10:07:39.897Z,2.00
2018-06-18T10:10:09.236Z,1.80
2018-06-18T10:12:38.126Z,2.60
2018-06-18T10:15:07.268Z,2.30
2018-06-18T10:17:36.513Z,2.50
2018-06-18T10:20:05.944Z,2.50
2018-06-18T10:22:35.248Z,2.17
2018-06-18T10:25:04.508Z,1.90
2018-06-18T10:27:33.754Z,1.80
2018-06-18T10:30:03.369Z,1.73
2018-06-18T10:32:37.879Z,2.10
2018-06-18T10:35:12.546Z,1.90
2018-06-18T10:37:46.924Z,2.30
2018-06-18T10:42:24.028Z,2.10
2018-06-18T10:44:53.292Z,2.10
2018-06-18T10:47:22.724Z,1.70
2018-06-18T10:49:52.144Z,2.33
2018-06-18T10:52:21.365Z,1.93
2018-06-18T10:54:50.570Z,2.37
2018-06-18T10:57:20.136Z,2.17
2018-06-18T10:59:49.368Z,2.37
2018-06-18T11:02:18.605Z,2.13
2018-06-18T11:04:53.287Z,1.90
2018-06-18T11:07:22.659Z,2.00
2018-06-18T11:09:51.921Z,1.60
2018-06-18T11:12:21.945Z,2.13
2018-06-18T11:14:51.172Z,1.80
2018-06-18T11:17:26.024Z,1.73
2018-06-18T11:20:00.313Z,1.73
2018-06-18T11:22:34.992Z,2.00
2018-06-18T11:25:09.632Z,2.00
2018-06-18T11:27:38.989Z,1.83
2018-06-18T11:30:08.575Z,2.03
2018-06-18T11:32:37.869Z,2.20
2018-06-18T11:35:08.371Z,1.80
2018-06-18T11:37:37.592Z,2.47
2018-06-18T11:40:06.977Z,1.67
2018-06-18T11:42:36.461Z,1.90
2018-06-18T11:45:05.772Z,1.80
2018-06-18T11:47:35.040Z,1.53
2018-06-18T11:50:04.336Z,1.53
2018-06-18T11:52:34.260Z,1.60
2018-06-18T11:55:03.749Z,2.07
2018-06-18T11:57:33.360Z,2.00
2018-06-18T12:00:07.843Z,2.57
2018-06-18T12:02:42.392Z,1.90
2018-06-18T12:05:16.744Z,2.20
2018-06-18T12:07:51.267Z,1.47
2018-06-18T12:10:20.551Z,1.80
2018-06-18T12:12:49.786Z,1.47
2018-06-18T12:15:19.064Z,1.80
2018-06-18T12:17:48.300Z,1.40
2018-06-18T12:20:17.518Z,1.40
2018-06-18T12:22:47.064Z,1.47
2018-06-18T12:25:16.348Z,1.60
2018-06-18T12:27:45.584Z,1.93
2018-06-18T12:30:14.854Z,1.60
2018-06-18T12:32:44.096Z,1.80
2018-06-18T12:35:13.488Z,1.90
2018-06-18T12:37:42.768Z,1.53
2018-06-18T12:40:12.004Z,1.87
2018-06-18T12:42:41.252Z,2.10
2018-06-18T12:45:17.542Z,1.47
2018-06-18T12:47:51.965Z,1.40
2018-06-18T12:50:26.597Z,1.80
2018-06-18T12:53:01.024Z,1.87
2018-06-18T12:55:35.644Z,1.83
2018-06-18T12:58:04.925Z,1.53
2018-06-18T13:00:34.166Z,1.70
2018-06-18T13:03:07.427Z,1.60
2018-06-18T13:05:36.672Z,1.80
2018-06-18T13:08:06.109Z,1.63
2018-06-18T13:10:35.442Z,2.40
2018-06-18T13:13:05.009Z,1.77
2018-06-18T13:15:34.239Z,1.53
2018-06-18T13:18:05.631Z,1.70
2018-06-18T13:20:35.320Z,2.20
2018-06-18T13:23:05.046Z,1.73
2018-06-18T13:25:34.373Z,1.50
2018-06-18T13:28:08.807Z,1.50
2018-06-18T13:30:38.080Z,1.80
2018-06-18T13:33:07.369Z,1.53
2018-06-18T13:35:36.572Z,1.80
2018-06-18T13:38:11.432Z,2.70
2018-06-18T13:40:46.049Z,1.50
2018-06-18T13:43:20.509Z,1.87
2018-06-18T13:48:00.781Z,1.97
2018-06-18T13:50:30.034Z,1.60
2018-06-18T13:52:59.241Z,1.97
2018-06-18T13:55:28.464Z,1.57
2018-06-18T13:57:57.768Z,1.57
2018-06-18T14:00:27.094Z,1.80
2018-06-18T14:02:56.322Z,1.67
2018-06-18T14:05:25.876Z,1.97
2018-06-18T14:07:55.212Z,1.77
2018-06-18T14:10:24.496Z,1.70
2018-06-18T14:12:53.756Z,1.57
2018-06-18T14:15:23.001Z,1.77
2018-06-18T14:17:52.576Z,2.43
2018-06-18T14:20:24.297Z,2.37
2018-06-18T14:22:53.858Z,2.10
2018-06-18T14:25:23.110Z,2.17
2018-06-18T14:27:52.963Z,2.10
2018-06-18T14:30:27.612Z,2.50
2018-06-18T14:33:02.052Z,2.00
2018-06-18T14:35:36.512Z,1.90
2018-06-18T14:38:11.240Z,1.60
2018-06-18T14:40:40.483Z,2.30
2018-06-18T14:43:09.709Z,2.70
2018-06-18T14:45:39.356Z,2.70
2018-06-18T14:48:08.640Z,2.03
2018-06-18T14:50:37.597Z,2.37
2018-06-18T14:53:06.754Z,2.10
2018-06-18T14:55:36.174Z,2.00
2018-06-18T14:58:05.423Z,2.10
2018-06-18T15:00:35.564Z,2.00
2018-06-18T15:03:04.967Z,2.20
2018-06-18T15:05:38.932Z,2.07
2018-06-18T15:08:08.334Z,2.60
2018-06-18T15:10:43.072Z,2.00
2018-06-18T15:13:13.936Z,2.27
2018-06-18T15:15:48.647Z,2.40
2018-06-18T15:18:18.100Z,2.30
2018-06-18T15:20:47.534Z,2.10
2018-06-18T15:23:17.448Z,2.30
2018-06-18T15:25:50.591Z,2.03
2018-06-18T15:28:19.921Z,2.20
2018-06-18T15:30:49.148Z,2.57
2018-06-18T15:33:18.483Z,2.30
2018-06-18T15:35:47.787Z,2.20
2018-06-18T15:38:17.059Z,2.40
2018-06-18T15:40:46.213Z,2.77
2018-06-18T15:43:15.540Z,2.43
2018-06-18T15:45:44.769Z,2.20
2018-06-18T15:48:13.979Z,1.90
2018-06-18T15:50:43.228Z,2.20
2018-06-18T15:53:12.459Z,1.70
2018-06-18T15:55:41.693Z,2.13
2018-06-18T15:58:11.218Z,1.80
2018-06-18T16:00:40.722Z,2.07
2018-06-18T16:03:10.092Z,3.33
2018-06-18T16:05:39.504Z,2.10
2018-06-18T16:08:09.029Z,2.20
2018-06-18T16:10:38.254Z,2.00
2018-06-18T16:13:07.492Z,1.83
2018-06-18T16:15:36.955Z,2.00
2018-06-18T16:18:06.216Z,2.57
2018-06-18T16:20:35.562Z,2.20
2018-06-18T16:23:05.188Z,2.13
2018-06-18T16:25:34.625Z,2.00
2018-06-18T16:28:04.304Z,2.43
2018-06-18T16:30:33.553Z,2.37
2018-06-18T16:33:02.800Z,1.70
2018-06-18T16:35:32.077Z,2.20
2018-06-18T16:38:01.359Z,2.37
2018-06-18T16:40:31.243Z,2.57
2018-06-18T16:43:00.800Z,2.07
2018-06-18T16:45:30.028Z,2.17
2018-06-18T16:47:59.368Z,1.83
2018-06-18T16:50:28.732Z,2.07
2018-06-18T16:52:57.964Z,2.63
2018-06-18T16:55:27.252Z,2.33
2018-06-18T16:57:56.524Z,2.30
2018-06-18T17:00:26.085Z,2.50
2018-06-18T17:02:55.494Z,2.10
2018-06-18T17:05:24.745Z,2.60
2018-06-18T17:07:54.097Z,2.57
2018-06-18T17:10:23.321Z,2.50
2018-06-18T17:12:52.896Z,2.30
2018-06-18T17:15:22.620Z,2.27
2018-06-18T17:17:51.868Z,2.90
2018-06-18T17:20:21.136Z,1.97
2018-06-18T17:22:52.720Z,2.50
2018-06-18T17:25:21.984Z,1.73
2018-06-18T17:27:51.267Z,2.60
2018-06-18T17:30:20.736Z,2.43
2018-06-18T17:32:50.090Z,2.90
2018-06-18T17:35:19.596Z,2.40
2018-06-18T17:37:48.828Z,2.10
2018-06-18T17:40:18.097Z,2.70
2018-06-18T17:42:47.328Z,2.70
2018-06-18T17:45:16.670Z,2.33
2018-06-18T17:47:45.968Z,2.70
2018-06-18T17:50:15.193Z,2.30
2018-06-18T17:52:44.451Z,2.80
2018-06-18T17:55:14.384Z,2.30
2018-06-18T17:57:44.454Z,2.53
2018-06-18T18:00:13.728Z,2.40
2018-06-18T18:02:43.130Z,2.43
2018-06-18T18:05:12.584Z,2.53
2018-06-18T18:07:41.815Z,2.73
2018-06-18T18:10:11.093Z,2.97
2018-06-18T18:12:40.400Z,2.60
2018-06-18T18:15:09.632Z,2.37
2018-06-18T18:17:39.192Z,2.40
2018-06-18T18:20:08.529Z,3.00
2018-06-18T18:22:38.039Z,2.47
2018-06-18T18:25:07.315Z,3.07
2018-06-18T18:27:36.576Z,2.40
2018-06-18T18:30:05.563Z,2.43
2018-06-18T18:32:34.941Z,2.77
2018-06-18T18:35:04.278Z,2.40
2018-06-18T18:37:35.727Z,2.50
2018-06-18T18:40:05.436Z,3.03
2018-06-18T18:42:34.335Z,2.90
2018-06-18T18:45:03.480Z,2.70
2018-06-18T18:47:33.399Z,2.73
2018-06-18T18:50:02.612Z,3.13
2018-06-18T18:52:31.863Z,2.33
2018-06-18T18:55:38.848Z,2.53
2018-06-18T18:58:20.412Z,2.50
2018-06-18T19:00:50.286Z,2.93
2018-06-18T19:03:21.426Z,2.93
2018-06-18T19:05:51.442Z,2.60
2018-06-18T19:08:29.692Z,2.50
2018-06-18T19:11:01.609Z,3.00
2018-06-18T19:13:35.265Z,2.90
2018-06-18T19:16:05.120Z,3.03
2018-06-18T19:18:36.024Z,2.73
2018-06-18T19:21:09.784Z,2.73
2018-06-18T19:23:39.154Z,2.60
2018-06-18T19:26:08.375Z,2.53
2018-06-18T19:28:38.380Z,3.10
2018-06-18T19:31:12.052Z,3.10
2018-06-18T19:34:10.409Z,2.73
2018-06-18T19:36:43.488Z,3.10
2018-06-18T19:39:13.712Z,3.00
2018-06-18T19:41:43.246Z,3.80
2018-06-18T19:44:12.587Z,2.80
2018-06-18T19:46:54.863Z,3.17
2018-06-18T19:49:24.256Z,2.90
2018-06-18T19:51:53.501Z,3.40
2018-06-18T19:54:25.949Z,3.20
2018-06-18T19:56:55.397Z,2.83
2018-06-18T19:59:24.699Z,3.03
2018-06-18T20:01:53.964Z,3.83
2018-06-18T20:04:23.364Z,3.00
2018-06-18T20:06:52.706Z,3.40
2018-06-18T20:09:22.799Z,3.07
2018-06-18T20:11:52.061Z,3.60
2018-06-18T20:14:21.268Z,3.43
2018-06-18T20:16:50.525Z,3.60
2018-06-18T20:19:20.134Z,3.23
2018-06-18T20:21:49.708Z,3.07
2018-06-18T20:24:18.953Z,3.40
2018-06-18T20:26:48.296Z,3.47
2018-06-18T20:29:17.529Z,2.83
2018-06-18T20:31:47.473Z,3.00
2018-06-18T20:34:16.648Z,3.40
2018-06-18T20:36:46.107Z,3.40
2018-06-18T20:39:15.380Z,3.33
2018-06-18T20:41:44.639Z,3.23
2018-06-18T20:44:18.033Z,3.07
2018-06-18T20:46:47.664Z,2.87
2018-06-18T20:49:16.943Z,3.07
2018-06-18T20:51:47.028Z,3.20
2018-06-18T20:54:16.276Z,3.13
2018-06-18T20:56:45.632Z,3.60
2018-06-18T20:59:15.148Z,2.87
2018-06-18T21:01:44.647Z,3.70
2018-06-18T21:04:13.880Z,3.37
2018-06-18T21:06:43.340Z,3.80
2018-06-18T21:09:12.580Z,3.00
2018-06-18T21:11:42.256Z,3.40
2018-06-18T21:14:12.300Z,3.60
2018-06-18T21:16:44.248Z,4.37
2018-06-18T21:19:13.785Z,3.50
2018-06-18T21:21:43.385Z,3.30
2018-06-18T21:24:12.636Z,3.57
2018-06-18T21:26:41.976Z,3.47
2018-06-18T21:29:11.237Z,3.37
2018-06-18T21:31:40.454Z,3.80
2018-06-18T21:34:10.077Z,4.17
2018-06-18T21:36:39.309Z,3.40
2018-06-18T21:39:09.787Z,4.30
2018-06-18T21:41:39.291Z,4.43
2018-06-18T21:44:16.424Z,4.00
2018-06-18T21:46:45.816Z,4.13
2018-06-18T21:49:15.034Z,4.17
2018-06-18T21:51:44.257Z,4.27
2018-06-18T21:54:14.004Z,3.93
2018-06-18T21:56:43.232Z,4.17
2018-06-18T21:59:12.472Z,4.10
2018-06-18T22:01:44.840Z,4.23
2018-06-18T22:04:15.232Z,3.60
2018-06-18T22:06:45.113Z,3.67
2018-06-18T22:09:17.492Z,4.47
2018-06-18T22:11:49.280Z,3.93
2018-06-18T22:14:18.989Z,3.60
2018-06-18T22:16:48.315Z,3.70
2018-06-18T22:19:17.520Z,3.93
2018-06-18T22:21:47.376Z,3.90
2018-06-18T22:24:16.599Z,4.20
2018-06-18T22:26:46.356Z,3.97
2018-06-18T22:29:16.689Z,4.67
2018-06-18T22:31:46.197Z,4.83
2018-06-18T22:34:15.602Z,4.70
2018-06-18T22:36:45.175Z,4.27
2018-06-18T22:39:14.441Z,4.70
2018-06-18T22:41:43.706Z,4.07
2018-06-18T22:44:13.108Z,4.23
2018-06-18T22:46:42.409Z,4.40
2018-06-18T22:49:11.781Z,4.70
2018-06-18T22:51:41.458Z,4.00
2018-06-18T22:54:10.735Z,4.43
2018-06-18T22:56:40.443Z,4.93
2018-06-18T22:59:09.760Z,4.60
2018-06-18T23:01:39.028Z,4.07
2018-06-18T23:04:08.248Z,4.60
2018-06-18T23:06:37.774Z,4.40
2018-06-18T23:09:09.297Z,4.40
2018-06-18T23:11:39.243Z,4.87
2018-06-18T23:14:12.766Z,4.40
2018-06-18T23:16:42.142Z,4.80
2018-06-18T23:19:11.398Z,4.77
2018-06-18T23:21:40.902Z,4.33
2018-06-18T23:24:10.695Z,4.67
2018-06-18T23:26:40.335Z,5.00
2018-06-18T23:29:12.332Z,4.50
2018-06-18T23:31:41.632Z,4.63
2018-06-18T23:34:10.899Z,4.60
2018-06-18T23:36:40.260Z,5.27
2018-06-18T23:39:10.849Z,4.33
2018-06-18T23:41:43.717Z,5.13
2018-06-18T23:44:12.598Z,4.70
2018-06-18T23:46:41.767Z,4.17
2018-06-18T23:49:11.651Z,4.73
2018-06-18T23:51:40.883Z,4.27
2018-06-18T23:54:10.113Z,4.70
2018-06-18T23:56:39.355Z,4.50
2018-06-18T23:59:09.333Z,4.50
